createdAt,value
2022-09-07T00:01:23.976Z,20.81
2022-09-07T00:03:50.697Z,20.83
2022-09-07T00:06:17.353Z,20.94
2022-09-07T00:08:43.905Z,20.95
2022-09-07T00:11:18.100Z,20.45
2022-09-07T00:13:54.832Z,19.94
2022-09-07T00:16:25.561Z,19.75
2022-09-07T00:19:00.643Z,19.92
2022-09-07T00:21:28.494Z,20.18
2022-09-07T00:23:55.954Z,20.05
2022-09-07T00:26:25.300Z,20.21
2022-09-07T00:28:54.620Z,20.14
2022-09-07T00:31:23.167Z,20.20
2022-09-07T00:33:54.415Z,20.31
2022-09-07T00:36:22.172Z,19.87
2022-09-07T00:38:48.983Z,20.08
2022-09-07T00:41:16.554Z,20.13
2022-09-07T00:43:52.879Z,19.88
2022-09-07T00:46:22.764Z,20.04
2022-09-07T00:49:09.395Z,19.97
2022-09-07T00:51:41.326Z,19.92
2022-09-07T00:54:11.103Z,19.83
2022-09-07T00:56:43.135Z,19.95
2022-09-07T00:59:11.366Z,20.00
2022-09-07T01:01:39.277Z,20.26
2022-09-07T01:04:06.175Z,20.20
2022-09-07T01:06:35.353Z,20.23
2022-09-07T01:09:12.481Z,20.20
2022-09-07T01:12:01.070Z,20.33
2022-09-07T01:14:36.593Z,19.81
2022-09-07T01:17:24.292Z,19.64
2022-09-07T01:20:20.475Z,19.82
2022-09-07T01:23:14.063Z,19.75
2022-09-07T01:26:04.954Z,19.47
2022-09-07T01:28:34.949Z,19.60
2022-09-07T01:31:30.790Z,19.75
2022-09-07T01:34:25.739Z,19.78
2022-09-07T01:37:21.678Z,19.74
2022-09-07T01:39:57.607Z,19.95
2022-09-07T01:42:31.643Z,19.90
2022-09-07T01:45:01.242Z,19.72
2022-09-07T01:47:36.286Z,19.71
2022-09-07T01:50:16.327Z,19.77
2022-09-07T01:53:07.410Z,19.49
2022-09-07T01:55:37.562Z,19.62
2022-09-07T01:58:36.969Z,19.70
2022-09-07T02:01:10.960Z,19.47
2022-09-07T02:03:57.328Z,19.42
2022-09-07T02:06:31.288Z,19.52
2022-09-07T02:09:19.583Z,19.52
2022-09-07T02:11:48.011Z,19.54
2022-09-07T02:14:24.082Z,19.72
2022-09-07T02:17:02.852Z,19.46
2022-09-07T02:19:35.729Z,19.40
2022-09-07T02:22:09.867Z,19.70
2022-09-07T02:24:41.140Z,19.69
2022-09-07T02:27:15.463Z,19.83
2022-09-07T02:29:52.024Z,19.93
2022-09-07T02:32:18.898Z,19.92
2022-09-07T02:34:48.343Z,19.97
2022-09-07T02:37:25.717Z,19.88
2022-09-07T02:39:52.447Z,19.92
2022-09-07T02:42:21.644Z,19.85
2022-09-07T02:44:52.062Z,19.96
2022-09-07T02:47:35.717Z,19.64
2022-09-07T02:50:18.945Z,19.59
2022-09-07T02:53:17.712Z,19.44
2022-09-07T02:56:25.750Z,19.48
2022-09-07T02:59:18.451Z,19.30
2022-09-07T03:02:06.396Z,19.46
2022-09-07T03:05:08.920Z,19.44
2022-09-07T03:07:44.230Z,19.29
2022-09-07T03:10:14.703Z,19.17
2022-09-07T03:12:44.936Z,19.35
2022-09-07T03:15:13.643Z,19.13
2022-09-07T03:17:41.000Z,19.10
2022-09-07T03:20:08.759Z,19.23
2022-09-07T03:22:35.432Z,19.22
2022-09-07T03:25:13.279Z,19.27
2022-09-07T03:27:40.662Z,19.20
2022-09-07T03:30:09.309Z,18.83
2022-09-07T03:32:37.590Z,18.82
2022-09-07T03:35:05.551Z,18.58
2022-09-07T03:37:32.240Z,18.74
2022-09-07T03:39:59.021Z,18.73
2022-09-07T03:42:25.684Z,18.77
2022-09-07T03:44:52.387Z,18.94
2022-09-07T03:47:20.474Z,18.66
2022-09-07T03:49:47.212Z,18.50
2022-09-07T03:52:13.836Z,18.58
2022-09-07T03:54:40.926Z,18.46
2022-09-07T03:57:07.839Z,18.50
2022-09-07T03:59:38.065Z,18.62
2022-09-07T04:02:07.770Z,18.70
2022-09-07T04:04:34.410Z,18.55
2022-09-07T04:07:01.458Z,18.42
2022-09-07T04:09:28.506Z,18.56
2022-09-07T04:11:55.419Z,18.67
2022-09-07T04:14:22.558Z,18.63
2022-09-07T04:16:49.933Z,18.75
2022-09-07T04:19:17.564Z,18.88
2022-09-07T04:21:47.147Z,18.62
2022-09-07T04:24:15.246Z,18.63
2022-09-07T04:26:43.539Z,18.61
2022-09-07T04:29:13.199Z,18.53
2022-09-07T04:31:40.030Z,18.45
2022-09-07T04:34:10.359Z,18.51
2022-09-07T04:36:37.034Z,18.58
2022-09-07T04:39:05.091Z,18.50
2022-09-07T04:41:33.460Z,18.42
2022-09-07T04:44:04.326Z,18.38
2022-09-07T04:46:36.085Z,18.40
2022-09-07T04:49:06.613Z,18.41
2022-09-07T04:51:33.593Z,18.38
2022-09-07T04:54:02.211Z,18.51
2022-09-07T04:56:30.093Z,18.30
2022-09-07T04:58:56.952Z,18.21
2022-09-07T05:01:25.065Z,18.26
2022-09-07T05:03:52.480Z,18.21
2022-09-07T05:06:20.497Z,18.31
2022-09-07T05:08:50.270Z,18.27
2022-09-07T05:11:17.722Z,18.37
2022-09-07T05:13:44.580Z,18.33
2022-09-07T05:16:16.920Z,18.20
2022-09-07T05:18:44.095Z,18.15
2022-09-07T05:21:23.236Z,18.11
2022-09-07T05:23:54.270Z,18.06
2022-09-07T05:26:23.094Z,17.99
2022-09-07T05:28:50.725Z,17.85
2022-09-07T05:31:19.884Z,17.87
2022-09-07T05:36:35.350Z,17.97
2022-09-07T05:39:06.022Z,18.08
2022-09-07T05:41:38.272Z,18.14
2022-09-07T05:46:54.485Z,18.23
2022-09-07T05:49:21.268Z,18.14
2022-09-07T05:51:50.945Z,18.14
2022-09-07T05:54:17.606Z,18.18
2022-09-07T05:56:44.178Z,18.13
2022-09-07T05:59:10.754Z,18.33
2022-09-07T06:01:38.529Z,18.30
2022-09-07T06:04:05.148Z,18.50
2022-09-07T06:06:31.745Z,18.64
2022-09-07T06:08:58.872Z,19.00
2022-09-07T06:11:29.238Z,19.01
2022-09-07T06:14:05.545Z,19.10
2022-09-07T06:16:34.918Z,19.07
2022-09-07T06:19:06.314Z,19.14
2022-09-07T06:21:36.581Z,19.45
2022-09-07T06:24:06.014Z,19.52
2022-09-07T06:26:32.678Z,19.64
2022-09-07T06:28:59.319Z,19.56
2022-09-07T06:31:26.725Z,19.66
2022-09-07T06:33:55.066Z,19.78
2022-09-07T06:36:23.903Z,20.21
2022-09-07T06:38:51.571Z,20.28
2022-09-07T06:44:14.916Z,20.30
2022-09-07T06:49:28.004Z,20.55
2022-09-07T06:51:54.644Z,20.69
2022-09-07T06:57:10.845Z,20.95
2022-09-07T06:59:38.040Z,20.86
2022-09-07T07:02:05.876Z,21.41
2022-09-07T07:04:36.508Z,21.30
2022-09-07T07:07:06.614Z,21.07
2022-09-07T07:09:33.417Z,21.09
2022-09-07T07:12:03.380Z,20.77
2022-09-07T07:17:29.363Z,20.06
2022-09-07T07:19:56.097Z,20.16
2022-09-07T07:25:11.917Z,20.27
2022-09-07T07:27:42.135Z,20.53
2022-09-07T07:30:09.274Z,20.50
2022-09-07T07:32:37.702Z,20.63
2022-09-07T07:35:04.405Z,20.75
2022-09-07T07:37:33.633Z,20.76
2022-09-07T07:40:17.477Z,20.88
2022-09-07T07:42:46.746Z,20.78
2022-09-07T07:48:01.346Z,21.03
2022-09-07T07:50:31.374Z,20.94
2022-09-07T07:55:45.485Z,20.94
2022-09-07T07:58:12.875Z,21.00
2022-09-07T08:00:53.871Z,21.01
2022-09-07T08:03:25.314Z,21.11
2022-09-07T08:05:52.211Z,20.96
2022-09-07T08:08:19.033Z,21.04
2022-09-07T08:10:48.007Z,21.44
2022-09-07T08:13:15.521Z,21.88
2022-09-07T08:15:47.681Z,21.83
2022-09-07T08:18:16.223Z,21.55
2022-09-07T08:20:43.100Z,21.61
2022-09-07T08:23:09.671Z,21.97
2022-09-07T08:25:36.373Z,21.38
2022-09-07T08:28:04.064Z,21.67
2022-09-07T08:30:30.687Z,22.18
2022-09-07T08:32:59.522Z,22.69
2022-09-07T08:35:26.035Z,22.80
2022-09-07T08:37:52.555Z,22.77
2022-09-07T08:40:22.041Z,22.57
2022-09-07T08:42:57.633Z,22.60
2022-09-07T08:45:49.210Z,22.64
2022-09-07T08:48:23.462Z,23.08
2022-09-07T08:50:57.159Z,22.60
2022-09-07T08:53:25.577Z,22.84
2022-09-07T08:55:56.874Z,22.72
2022-09-07T08:58:49.589Z,22.11
2022-09-07T09:01:31.940Z,22.29
2022-09-07T09:06:52.687Z,23.06
2022-09-07T09:09:51.045Z,23.18
2022-09-07T09:12:38.376Z,22.94
2022-09-07T09:15:10.467Z,23.21
2022-09-07T09:17:41.703Z,23.36
2022-09-07T09:20:08.364Z,22.96
2022-09-07T09:22:35.364Z,22.93
2022-09-07T09:25:15.526Z,23.41
2022-09-07T09:27:42.257Z,23.54
2022-09-07T09:30:14.368Z,23.06
2022-09-07T09:32:43.229Z,22.88
2022-09-07T09:35:34.415Z,23.22
2022-09-07T09:38:03.634Z,23.56
2022-09-07T09:40:36.009Z,23.56
2022-09-07T09:43:20.907Z,23.81
2022-09-07T09:46:13.154Z,23.94
2022-09-07T09:48:41.685Z,24.08
2022-09-07T09:53:58.156Z,23.35
2022-09-07T09:56:44.785Z,23.29
2022-09-07T10:05:36.731Z,23.25
2022-09-07T10:08:15.125Z,23.44
2022-09-07T10:10:51.305Z,23.46
2022-09-07T10:13:23.671Z,23.62
2022-09-07T10:15:52.243Z,23.58
2022-09-07T10:18:29.196Z,24.14
2022-09-07T10:21:16.456Z,23.83
2022-09-07T10:23:43.211Z,23.47
2022-09-07T10:26:35.877Z,24.31
2022-09-07T10:29:17.069Z,23.99
2022-09-07T10:31:55.792Z,23.89
2022-09-07T10:34:45.938Z,24.33
2022-09-07T10:37:20.562Z,24.00
2022-09-07T10:40:16.503Z,24.01
2022-09-07T10:45:43.192Z,24.42
2022-09-07T10:48:24.653Z,24.15
2022-09-07T10:50:56.945Z,23.79
2022-09-07T10:53:42.330Z,24.24
2022-09-07T10:56:15.260Z,24.42
2022-09-07T10:59:02.229Z,24.57
2022-09-07T11:01:50.239Z,24.38
2022-09-07T11:04:19.789Z,24.23
2022-09-07T11:06:50.620Z,25.04
2022-09-07T11:09:55.744Z,25.26
2022-09-07T11:12:28.143Z,25.28
2022-09-07T11:15:13.292Z,25.42
2022-09-07T11:17:56.279Z,25.40
2022-09-07T11:20:23.133Z,25.14
2022-09-07T11:23:19.482Z,24.87
2022-09-07T11:26:23.700Z,24.92
2022-09-07T11:31:45.500Z,24.53
2022-09-07T11:34:29.297Z,25.10
2022-09-07T11:37:01.193Z,25.35
2022-09-07T11:39:35.518Z,24.42
2022-09-07T11:42:43.577Z,24.62
2022-09-07T11:45:43.879Z,25.05
2022-09-07T11:48:35.587Z,25.67
2022-09-07T11:51:11.005Z,25.66
2022-09-07T11:53:42.811Z,25.79
2022-09-07T11:56:20.280Z,25.27
2022-09-07T11:59:11.925Z,24.88
2022-09-07T12:01:49.851Z,25.14
2022-09-07T12:04:35.779Z,25.49
2022-09-07T12:07:24.058Z,25.50
2022-09-07T12:10:05.398Z,25.26
2022-09-07T12:13:11.562Z,25.50
2022-09-07T12:15:56.149Z,25.52
2022-09-07T12:18:50.557Z,25.52
2022-09-07T12:21:41.676Z,25.29
2022-09-07T12:24:39.121Z,25.09
2022-09-07T12:27:22.792Z,25.20
2022-09-07T12:29:58.416Z,25.21
2022-09-07T12:32:54.966Z,25.43
2022-09-07T12:35:28.522Z,25.66
2022-09-07T12:38:08.338Z,25.90
2022-09-07T12:40:34.870Z,25.63
2022-09-07T12:43:16.832Z,25.44
2022-09-07T12:45:48.468Z,25.21
2022-09-07T12:48:14.992Z,25.54
2022-09-07T12:51:59.367Z,24.67
2022-09-07T12:54:17.400Z,24.73
2022-09-07T12:57:29.594Z,25.31
2022-09-07T13:00:23.226Z,24.99
2022-09-07T13:02:49.779Z,24.83
2022-09-07T13:05:41.203Z,25.03
2022-09-07T13:08:52.752Z,25.05
2022-09-07T13:11:19.212Z,25.09
2022-09-07T13:14:04.988Z,25.47
2022-09-07T13:19:46.491Z,24.99
2022-09-07T13:22:31.449Z,25.14
2022-09-07T13:25:03.294Z,25.03
2022-09-07T13:28:00.854Z,25.15
2022-09-07T13:30:33.983Z,25.08
2022-09-07T13:33:36.414Z,25.34
2022-09-07T13:36:17.413Z,25.61
2022-09-07T13:38:45.433Z,25.34
2022-09-07T13:41:22.638Z,25.53
2022-09-07T13:44:03.166Z,24.96
2022-09-07T13:47:05.207Z,25.08
2022-09-07T13:49:55.598Z,25.11
2022-09-07T13:52:29.588Z,24.93
2022-09-07T13:55:30.742Z,24.92
2022-09-07T13:58:12.137Z,24.94
2022-09-07T14:00:53.280Z,25.03
2022-09-07T14:03:23.998Z,25.05
2022-09-07T14:06:22.718Z,25.01
2022-09-07T14:08:56.465Z,24.79
2022-09-07T14:11:38.700Z,24.99
2022-09-07T14:14:17.470Z,25.04
2022-09-07T14:16:51.674Z,24.91
2022-09-07T14:19:34.758Z,25.01
2022-09-07T14:22:06.854Z,24.79
2022-09-07T14:24:41.371Z,24.83
2022-09-07T14:27:25.738Z,24.63
2022-09-07T14:29:53.351Z,24.82
2022-09-07T14:32:28.894Z,24.96
2022-09-07T14:34:56.266Z,24.92
2022-09-07T14:37:25.856Z,24.99
2022-09-07T14:39:58.683Z,25.00
2022-09-07T14:42:26.968Z,25.12
2022-09-07T14:45:20.242Z,24.86
2022-09-07T14:48:07.593Z,25.20
2022-09-07T14:50:53.986Z,24.87
2022-09-07T14:53:34.648Z,24.95
2022-09-07T14:56:49.071Z,25.00
2022-09-07T14:59:49.171Z,24.93
2022-09-07T15:02:30.357Z,24.89
2022-09-07T15:05:27.221Z,24.56
2022-09-07T15:08:02.952Z,24.68
2022-09-07T15:10:31.599Z,24.56
2022-09-07T15:13:00.104Z,24.56
2022-09-07T15:15:34.273Z,24.56
2022-09-07T15:18:09.024Z,24.39
2022-09-07T15:20:46.067Z,24.44
2022-09-07T15:23:20.713Z,24.30
2022-09-07T15:25:54.176Z,24.17
2022-09-07T15:34:12.013Z,23.98
2022-09-07T15:36:41.049Z,24.18
2022-09-07T15:39:25.339Z,24.03
2022-09-07T15:41:53.941Z,23.84
2022-09-07T15:45:08.245Z,23.78
2022-09-07T15:56:03.242Z,23.91
2022-09-07T15:58:39.282Z,24.02
2022-09-07T16:04:14.244Z,24.10
2022-09-07T16:06:43.820Z,24.13
2022-09-07T16:09:32.989Z,24.06
2022-09-07T16:13:00.015Z,23.83
2022-09-07T16:15:03.763Z,23.58
2022-09-07T16:17:47.134Z,23.61
2022-09-07T16:20:14.807Z,23.59
2022-09-07T16:25:28.651Z,23.50
2022-09-07T16:27:55.655Z,23.68
2022-09-07T16:30:22.530Z,23.83
2022-09-07T16:32:51.087Z,23.89
2022-09-07T16:35:29.365Z,23.96
2022-09-07T16:40:43.599Z,23.99
2022-09-07T16:43:11.772Z,24.15
2022-09-07T16:48:27.849Z,23.81
2022-09-07T16:51:01.245Z,23.86
2022-09-07T16:53:29.499Z,23.95
2022-09-07T16:56:08.185Z,23.78
2022-09-07T16:58:47.993Z,23.87
2022-09-07T17:01:18.578Z,23.72
2022-09-07T17:03:45.997Z,23.65
2022-09-07T17:06:17.233Z,23.63
2022-09-07T17:08:44.125Z,23.56
2022-09-07T17:14:06.528Z,23.27
2022-09-07T17:16:37.520Z,23.37
2022-09-07T17:21:53.779Z,23.43
2022-09-07T17:24:21.068Z,23.44
2022-09-07T17:26:47.852Z,23.32
2022-09-07T17:29:14.753Z,23.15
2022-09-07T17:34:30.830Z,23.17
2022-09-07T17:36:57.657Z,23.12
2022-09-07T17:39:24.491Z,22.95
2022-09-07T17:41:54.751Z,22.95
2022-09-07T17:44:24.737Z,22.91
2022-09-07T17:46:51.571Z,22.96
2022-09-07T17:49:21.697Z,23.10
2022-09-07T17:51:51.269Z,23.00
2022-09-07T17:54:18.070Z,22.78
2022-09-07T17:56:47.807Z,22.76
2022-09-07T18:02:05.906Z,22.94
2022-09-07T18:04:32.801Z,22.88
2022-09-07T18:06:59.962Z,22.81
2022-09-07T18:09:27.153Z,22.40
2022-09-07T18:11:56.032Z,22.56
2022-09-07T18:14:22.753Z,22.53
2022-09-07T18:16:50.305Z,22.44
2022-09-07T18:19:18.403Z,22.56
2022-09-07T18:21:45.944Z,22.69
2022-09-07T18:24:19.046Z,22.61
2022-09-07T18:26:51.776Z,22.51
2022-09-07T18:29:36.769Z,22.53
2022-09-07T18:32:09.825Z,22.44
2022-09-07T18:34:38.408Z,21.95
2022-09-07T18:37:06.111Z,22.14
2022-09-07T18:39:36.754Z,21.72
2022-09-07T18:42:03.996Z,21.93
2022-09-07T18:47:23.183Z,21.77
2022-09-07T18:49:54.916Z,21.60
2022-09-07T18:55:29.173Z,21.82
2022-09-07T18:57:56.358Z,21.64
2022-09-07T19:00:23.216Z,21.73
2022-09-07T19:02:50.391Z,21.92
2022-09-07T19:08:07.019Z,21.74
2022-09-07T19:10:35.892Z,21.73
2022-09-07T19:13:03.236Z,21.32
2022-09-07T19:15:32.258Z,21.38
2022-09-07T19:18:02.323Z,21.28
2022-09-07T19:20:29.315Z,21.33
2022-09-07T19:22:56.576Z,21.25
2022-09-07T19:25:23.478Z,21.05
2022-09-07T19:27:50.072Z,21.07
2022-09-07T19:30:22.451Z,20.85
2022-09-07T19:33:06.646Z,20.82
2022-09-07T19:35:38.906Z,20.98
2022-09-07T19:38:05.823Z,20.83
2022-09-07T19:40:32.351Z,20.86
2022-09-07T19:42:58.882Z,20.71
2022-09-07T19:45:30.510Z,20.66
2022-09-07T19:48:04.646Z,20.70
2022-09-07T19:50:39.940Z,20.21
2022-09-07T19:53:06.533Z,20.33
2022-09-07T19:55:33.083Z,20.28
2022-09-07T20:01:06.055Z,20.63
2022-09-07T20:03:45.349Z,20.17
2022-09-07T20:06:14.597Z,20.10
2022-09-07T20:09:02.580Z,19.95
2022-09-07T20:11:35.778Z,19.49
2022-09-07T20:14:02.893Z,19.64
2022-09-07T20:16:42.064Z,19.66
2022-09-07T20:19:22.434Z,19.56
2022-09-07T20:21:54.071Z,19.49
2022-09-07T20:24:26.415Z,19.53
2022-09-07T20:26:54.808Z,19.50
2022-09-07T20:29:29.324Z,19.78
2022-09-07T20:31:58.325Z,19.66
2022-09-07T20:34:26.104Z,19.73
2022-09-07T20:36:58.857Z,19.49
2022-09-07T20:39:34.675Z,19.43
2022-09-07T20:42:05.308Z,19.36
2022-09-07T20:44:32.110Z,19.36
2022-09-07T20:46:58.935Z,19.32
2022-09-07T20:49:25.612Z,19.16
2022-09-07T20:51:52.399Z,19.30
2022-09-07T20:54:19.152Z,19.25
2022-09-07T20:56:46.017Z,19.25
2022-09-07T20:59:12.686Z,19.13
2022-09-07T21:01:39.522Z,19.25
2022-09-07T21:04:06.453Z,18.85
2022-09-07T21:06:33.428Z,18.89
2022-09-07T21:09:00.508Z,18.72
2022-09-07T21:11:32.919Z,18.74
2022-09-07T21:14:08.102Z,18.80
2022-09-07T21:16:36.024Z,18.80
2022-09-07T21:19:08.782Z,18.92
2022-09-07T21:21:39.203Z,18.86
2022-09-07T21:24:07.002Z,18.97
2022-09-07T21:26:33.547Z,18.77
2022-09-07T21:29:02.158Z,18.47
2022-09-07T21:31:33.680Z,18.61
2022-09-07T21:34:01.662Z,18.62
2022-09-07T21:36:39.386Z,18.84
2022-09-07T21:39:12.463Z,18.81
2022-09-07T21:41:41.081Z,18.75
2022-09-07T21:44:08.097Z,18.70
2022-09-07T21:46:34.929Z,18.96
2022-09-07T21:49:02.081Z,18.71
2022-09-07T21:51:28.793Z,18.77
2022-09-07T21:53:57.258Z,18.83
2022-09-07T21:56:24.435Z,18.81
2022-09-07T21:58:55.453Z,18.71
2022-09-07T22:01:26.464Z,18.42
2022-09-07T22:03:58.570Z,18.10
2022-09-07T22:06:27.917Z,18.24
2022-09-07T22:08:55.299Z,18.15
2022-09-07T22:11:25.855Z,18.22
2022-09-07T22:14:00.490Z,18.45
2022-09-07T22:16:27.149Z,18.43
2022-09-07T22:18:53.773Z,18.41
2022-09-07T22:21:25.311Z,18.44
2022-09-07T22:23:55.452Z,18.55
2022-09-07T22:26:24.295Z,18.66
2022-09-07T22:28:50.954Z,18.78
2022-09-07T22:31:23.096Z,18.77
2022-09-07T22:33:50.831Z,18.81
2022-09-07T22:36:30.201Z,18.85
2022-09-07T22:38:58.849Z,18.99
2022-09-07T22:41:28.110Z,19.07
2022-09-07T22:43:54.848Z,18.99
2022-09-07T22:46:26.334Z,18.87
2022-09-07T22:49:05.939Z,18.96
2022-09-07T22:51:36.168Z,19.03
2022-09-07T22:54:02.886Z,19.07
2022-09-07T22:56:31.417Z,19.00
2022-09-07T22:59:04.899Z,19.03
2022-09-07T23:01:32.216Z,18.99
2022-09-07T23:03:59.393Z,18.92
2022-09-07T23:06:30.487Z,19.08
2022-09-07T23:08:58.831Z,19.10
2022-09-07T23:11:25.840Z,19.05
2022-09-07T23:13:56.140Z,19.04
2022-09-07T23:16:22.996Z,19.07
2022-09-07T23:18:52.756Z,19.08
2022-09-07T23:21:19.386Z,19.09
2022-09-07T23:23:53.889Z,19.13
2022-09-07T23:26:25.029Z,19.20
2022-09-07T23:28:56.688Z,19.21
2022-09-07T23:31:24.613Z,19.13
2022-09-07T23:33:55.774Z,18.99
2022-09-07T23:36:22.453Z,19.02
2022-09-07T23:38:49.104Z,18.90
2022-09-07T23:41:19.566Z,18.95
2022-09-07T23:43:48.315Z,18.83
2022-09-07T23:46:15.472Z,18.89
2022-09-07T23:48:46.247Z,18.94
2022-09-07T23:51:18.696Z,18.95
2022-09-07T23:53:48.142Z,19.03
2022-09-07T23:56:14.736Z,19.08
2022-09-07T23:58:41.648Z,19.10
